Terminal Aerodrome Forecast
Issued by NWS Binghamton, NY

Home | Current Version | Previous Version | Text Only | Print | Product List | Glossary On
Versions: 1 2 3 4 5 6 7 8 9 10 11 12 13 14 15 16 17 18 19
000
FTUS41 KBGM 211700
TAFAVP
TAF
KAVP 211740Z 2118/2218 22010KT P6SM SCT040 BKN070
      TEMPO 2122/2124 4SM SHRA BR OVC025
     FM220200 29008KT P6SM BKN040
     FM221500 32012G22KT P6SM BKN035=

USA.gov is the U.S. government's official web portal to all federal, state and local government web resources and services.